Terminal Aerodrome Forecast
Issued by NWS Cleveland, OH

Home | Current Version | Previous Version | Graphics & Text | Print | Product List | Glossary On
Versions: 1 2 3 4 5 6 7 8 9 10 11 12 13 14 15 16 17
000
FTUS41 KCLE 171100
TAFERI
TAF
KERI 171138Z 1712/1812 25015G25KT P6SM SCT008 OVC015
      TEMPO 1712/1715 -RASN OVC008
     FM171900 26015G25KT 3SM -SHSN OVC020
     FM172200 26012G22KT 2SM -SHSN OVC010
     FM180600 27012G20KT 5SM -SHSN OVC025=

USA.gov is the U.S. government's official web portal to all federal, state and local government web resources and services.